createdAt,value
2023-01-12T00:01:57.599Z,101406.41
2023-01-12T00:04:25.253Z,101408.56
2023-01-12T00:06:52.631Z,101415.34
2023-01-12T00:09:19.980Z,101417.25
2023-01-12T00:11:47.307Z,101414.50
2023-01-12T00:14:15.044Z,101405.28
2023-01-12T00:16:42.718Z,101398.00
2023-01-12T00:19:11.587Z,101403.91
2023-01-12T00:22:06.195Z,101408.78
2023-01-12T00:24:37.328Z,101414.19
2023-01-12T00:27:09.881Z,101422.06
2023-01-12T00:29:37.706Z,101429.09
2023-01-12T00:32:06.072Z,101425.84
2023-01-12T00:34:33.964Z,101426.63
2023-01-12T00:37:02.230Z,101421.50
2023-01-12T00:39:29.555Z,101416.81
2023-01-12T00:42:15.543Z,101411.91
2023-01-12T00:45:01.472Z,101429.03
2023-01-12T00:47:28.815Z,101429.84
2023-01-12T00:49:56.204Z,101425.78
2023-01-12T00:52:31.765Z,101423.16
2023-01-12T00:55:00.022Z,101424.53
2023-01-12T00:57:28.352Z,101424.50
2023-01-12T00:59:58.121Z,101421.53
2023-01-12T01:02:27.553Z,101408.81
2023-01-12T01:04:55.043Z,101410.72
2023-01-12T01:07:22.511Z,101413.13
2023-01-12T01:09:50.291Z,101410.16
2023-01-12T01:12:17.705Z,101408.00
2023-01-12T01:14:46.332Z,101400.44
2023-01-12T01:17:13.673Z,101394.78
2023-01-12T01:19:40.979Z,101401.16
2023-01-12T01:22:08.347Z,101398.00
2023-01-12T01:24:35.632Z,101402.09
2023-01-12T01:27:03.171Z,101407.53
2023-01-12T01:29:30.443Z,101417.00
2023-01-12T01:31:57.905Z,101412.72
2023-01-12T01:34:25.247Z,101408.69
2023-01-12T01:36:52.703Z,101403.28
2023-01-12T01:39:20.021Z,101410.88
2023-01-12T01:41:48.209Z,101418.44
2023-01-12T01:44:30.929Z,101439.03
2023-01-12T01:47:11.308Z,101421.19
2023-01-12T01:49:54.907Z,101426.88
2023-01-12T01:52:36.723Z,101425.78
2023-01-12T01:55:11.254Z,101423.38
2023-01-12T01:57:46.107Z,101415.00
2023-01-12T02:00:13.918Z,101427.19
2023-01-12T02:02:43.891Z,101435.00
2023-01-12T02:05:11.829Z,101435.00
2023-01-12T02:07:39.299Z,101427.16
2023-01-12T02:10:06.930Z,101424.50
2023-01-12T02:12:52.838Z,101429.91
2023-01-12T02:15:43.352Z,101436.63
2023-01-12T02:18:13.763Z,101431.53
2023-01-12T02:20:48.584Z,101438.28
2023-01-12T02:23:30.740Z,101425.03
2023-01-12T02:26:06.902Z,101423.66
2023-01-12T02:29:11.851Z,101427.75
2023-01-12T02:31:59.051Z,101418.03
2023-01-12T02:34:32.567Z,101414.53
2023-01-12T02:37:07.746Z,101397.50
2023-01-12T02:39:50.474Z,101391.84
2023-01-12T02:42:41.283Z,101395.88
2023-01-12T02:45:21.121Z,101394.78
2023-01-12T02:48:15.925Z,101401.03
2023-01-12T02:51:11.248Z,101411.56
2023-01-12T02:53:43.548Z,101416.94
2023-01-12T02:56:13.723Z,101411.53
2023-01-12T02:58:47.136Z,101409.13
2023-01-12T03:01:16.928Z,101409.13
2023-01-12T03:03:45.182Z,101400.75
2023-01-12T03:06:17.498Z,101392.38
2023-01-12T03:08:47.993Z,101399.13
2023-01-12T03:11:20.680Z,101394.78
2023-01-12T03:13:52.248Z,101399.94
2023-01-12T03:16:27.172Z,101407.50
2023-01-12T03:19:04.371Z,101406.69
2023-01-12T03:21:46.735Z,101408.03
2023-01-12T03:24:23.358Z,101401.28
2023-01-12T03:26:55.310Z,101407.25
2023-01-12T03:29:27.956Z,101403.44
2023-01-12T03:31:56.149Z,101405.06
2023-01-12T03:34:23.970Z,101409.94
2023-01-12T03:37:21.955Z,101411.56
2023-01-12T03:40:17.376Z,101418.84
2023-01-12T03:42:55.781Z,101412.34
2023-01-12T03:45:41.215Z,101409.94
2023-01-12T03:48:27.000Z,101406.94
2023-01-12T03:51:15.244Z,101402.06
2023-01-12T03:53:45.266Z,101396.44
2023-01-12T03:56:14.243Z,101396.97
2023-01-12T03:58:42.122Z,101395.06
2023-01-12T04:01:09.675Z,101404.25
2023-01-12T04:03:37.259Z,101401.56
2023-01-12T04:06:05.222Z,101403.13
2023-01-12T04:08:32.656Z,101407.19
2023-01-12T04:11:00.362Z,101415.78
2023-01-12T04:13:27.836Z,101419.81
2023-01-12T04:15:55.229Z,101418.19
2023-01-12T04:18:22.680Z,101438.97
2023-01-12T04:20:50.056Z,101427.38
2023-01-12T04:23:17.496Z,101434.63
2023-01-12T04:25:44.882Z,101424.34
2023-01-12T04:28:12.362Z,101435.94
2023-01-12T04:30:39.789Z,101444.59
2023-01-12T04:33:08.282Z,101455.41
2023-01-12T04:35:35.751Z,101464.31
2023-01-12T04:38:07.812Z,101464.66
2023-01-12T04:40:35.616Z,101459.81
2023-01-12T04:43:07.325Z,101464.69
2023-01-12T04:45:36.324Z,101475.22
2023-01-12T04:48:10.319Z,101465.97
2023-01-12T04:50:38.922Z,101485.72
2023-01-12T04:53:09.239Z,101492.81
2023-01-12T04:55:38.456Z,101500.91
2023-01-12T04:58:06.496Z,101513.84
2023-01-12T05:00:34.692Z,101523.31
2023-01-12T05:03:03.448Z,101530.00
2023-01-12T05:05:32.589Z,101528.38
2023-01-12T05:08:19.997Z,101524.59
2023-01-12T05:10:51.428Z,101523.78
2023-01-12T05:13:19.445Z,101509.50
2023-01-12T05:15:46.981Z,101505.41
2023-01-12T05:18:14.486Z,101477.88
2023-01-12T05:20:42.267Z,101483.25
2023-01-12T05:23:09.704Z,101480.84
2023-01-12T05:25:37.313Z,101464.66
2023-01-12T05:28:05.090Z,101470.31
2023-01-12T05:30:32.546Z,101477.09
2023-01-12T05:33:00.065Z,101486.22
2023-01-12T05:35:27.450Z,101481.81
2023-01-12T05:37:56.719Z,101472.63
2023-01-12T05:40:24.874Z,101474.47
2023-01-12T05:43:10.762Z,101469.09
2023-01-12T05:45:38.168Z,101469.63
2023-01-12T05:48:06.129Z,101481.78
2023-01-12T05:50:33.585Z,101480.44
2023-01-12T05:53:10.585Z,101484.47
2023-01-12T05:55:38.687Z,101489.03
2023-01-12T05:58:06.281Z,101510.59
2023-01-12T06:00:33.772Z,101510.44
2023-01-12T06:03:02.973Z,101520.94
2023-01-12T06:05:30.428Z,101527.47
2023-01-12T06:07:59.101Z,101525.72
2023-01-12T06:10:26.743Z,101529.03
2023-01-12T06:13:12.598Z,101537.09
2023-01-12T06:15:40.162Z,101535.47
2023-01-12T06:18:07.586Z,101534.09
2023-01-12T06:20:35.046Z,101523.09
2023-01-12T06:23:04.977Z,101529.75
2023-01-12T06:25:32.711Z,101524.69
2023-01-12T06:28:00.314Z,101528.56
2023-01-12T06:30:27.806Z,101534.78
2023-01-12T06:32:55.324Z,101547.59
2023-01-12T06:35:22.797Z,101551.44
2023-01-12T06:37:55.741Z,101538.78
2023-01-12T06:40:23.197Z,101552.78
2023-01-12T06:42:50.873Z,101547.69
2023-01-12T06:45:18.427Z,101543.94
2023-01-12T06:47:52.389Z,101583.28
2023-01-12T06:50:19.959Z,101597.28
2023-01-12T06:52:47.581Z,101570.97
2023-01-12T06:55:15.281Z,101563.44
2023-01-12T06:57:42.796Z,101561.00
2023-01-12T07:00:13.203Z,101581.09
2023-01-12T07:02:40.758Z,101582.66
2023-01-12T07:05:08.661Z,101597.75
2023-01-12T07:07:39.273Z,101602.16
2023-01-12T07:10:08.134Z,101606.56
2023-01-12T07:12:35.933Z,101605.69
2023-01-12T07:15:04.065Z,101599.72
2023-01-12T07:17:31.996Z,101589.91
2023-01-12T07:19:59.486Z,101596.84
2023-01-12T07:22:30.431Z,101595.56
2023-01-12T07:24:58.045Z,101593.94
2023-01-12T07:27:25.538Z,101584.19
2023-01-12T07:29:52.985Z,101580.63
2023-01-12T07:32:20.377Z,101579.28
2023-01-12T07:34:48.066Z,101577.16
2023-01-12T07:37:15.485Z,101592.06
2023-01-12T07:39:43.023Z,101600.97
2023-01-12T07:42:25.604Z,101601.72
2023-01-12T07:44:53.545Z,101600.34
2023-01-12T07:47:21.050Z,101603.34
2023-01-12T07:49:48.596Z,101612.31
2023-01-12T07:52:16.151Z,101610.16
2023-01-12T07:54:43.736Z,101619.91
2023-01-12T07:57:11.693Z,101625.59
2023-01-12T07:59:39.601Z,101628.81
2023-01-12T08:02:07.269Z,101618.53
2023-01-12T08:04:34.942Z,101625.59
2023-01-12T08:07:02.442Z,101625.31
2023-01-12T08:09:30.027Z,101633.69
2023-01-12T08:11:57.441Z,101632.34
2023-01-12T08:14:33.282Z,101643.66
2023-01-12T08:17:02.296Z,101650.16
2023-01-12T08:19:38.715Z,101636.91
2023-01-12T08:22:12.939Z,101645.56
2023-01-12T08:24:47.525Z,101641.53
2023-01-12T08:27:18.724Z,101647.75
2023-01-12T08:29:51.522Z,101669.06
2023-01-12T08:32:19.464Z,101658.84
2023-01-12T08:34:50.444Z,101662.34
2023-01-12T08:37:21.658Z,101673.16
2023-01-12T08:39:50.576Z,101679.66
2023-01-12T08:42:19.149Z,101695.06
2023-01-12T08:44:46.792Z,101688.03
2023-01-12T08:47:27.081Z,101672.88
2023-01-12T08:49:55.420Z,101681.00
2023-01-12T08:52:41.503Z,101690.22
2023-01-12T08:55:11.254Z,101703.75
2023-01-12T08:57:38.807Z,101711.03
2023-01-12T09:00:07.085Z,101715.63
2023-01-12T09:02:34.694Z,101740.00
2023-01-12T09:05:02.310Z,101734.03
2023-01-12T09:07:32.020Z,101730.78
2023-01-12T09:09:59.506Z,101742.69
2023-01-12T09:12:28.385Z,101740.78
2023-01-12T09:14:55.975Z,101740.47
2023-01-12T09:17:23.512Z,101748.31
2023-01-12T09:19:51.631Z,101754.84
2023-01-12T09:22:19.114Z,101749.97
2023-01-12T09:24:46.688Z,101744.31
2023-01-12T09:27:14.137Z,101739.69
2023-01-12T09:29:41.686Z,101730.78
2023-01-12T09:32:09.841Z,101731.59
2023-01-12T09:34:37.466Z,101734.03
2023-01-12T09:37:04.899Z,101757.84
2023-01-12T09:39:32.389Z,101764.88
2023-01-12T09:42:18.344Z,101769.75
2023-01-12T09:45:09.893Z,101770.84
2023-01-12T09:48:01.291Z,101747.81
2023-01-12T09:50:42.376Z,101751.31
2023-01-12T09:53:19.441Z,101750.75
2023-01-12T09:56:02.845Z,101754.38
2023-01-12T09:59:07.933Z,101744.78
2023-01-12T10:01:36.910Z,101753.34
2023-01-12T10:04:23.122Z,101766.59
2023-01-12T10:06:51.149Z,101755.56
2023-01-12T10:09:20.287Z,101748.34
2023-01-12T10:12:15.651Z,101735.41
2023-01-12T10:15:11.054Z,101738.81
2023-01-12T10:17:52.011Z,101740.88
2023-01-12T10:20:40.504Z,101741.91
2023-01-12T10:23:11.235Z,101740.97
2023-01-12T10:25:48.741Z,101741.31
2023-01-12T10:28:29.971Z,101745.88
2023-01-12T10:30:58.404Z,101747.06
2023-01-12T10:33:28.794Z,101727.53
2023-01-12T10:35:56.203Z,101717.59
2023-01-12T10:38:34.798Z,101717.88
2023-01-12T10:41:11.055Z,101713.91
2023-01-12T10:43:40.545Z,101693.31
2023-01-12T10:46:22.519Z,101721.00
2023-01-12T10:48:54.267Z,101726.97
2023-01-12T10:51:26.295Z,101726.44
2023-01-12T10:53:59.024Z,101719.66
2023-01-12T10:56:31.573Z,101725.91
2023-01-12T10:59:02.066Z,101721.19
2023-01-12T11:02:08.896Z,101730.50
2023-01-12T11:04:41.466Z,101731.38
2023-01-12T11:07:08.953Z,101736.91
2023-01-12T11:09:37.214Z,101712.19
2023-01-12T11:12:32.704Z,101724.13
2023-01-12T11:15:16.940Z,101715.53
2023-01-12T11:18:03.999Z,101703.28
2023-01-12T11:20:44.412Z,101698.16
2023-01-12T11:23:22.578Z,101689.78
2023-01-12T11:25:52.576Z,101680.34
2023-01-12T11:28:52.268Z,101690.13
2023-01-12T11:31:28.515Z,101691.09
2023-01-12T11:34:03.657Z,101687.28
2023-01-12T11:36:59.453Z,101672.84
2023-01-12T11:39:30.004Z,101684.84
2023-01-12T11:42:20.912Z,101679.69
2023-01-12T11:45:05.225Z,101687.56
2023-01-12T11:47:36.830Z,101688.34
2023-01-12T11:50:14.253Z,101691.19
2023-01-12T11:52:42.608Z,101698.72
2023-01-12T11:55:15.871Z,101688.34
2023-01-12T11:58:08.284Z,101676.91
2023-01-12T12:01:04.868Z,101662.59
2023-01-12T12:03:35.436Z,101666.66
2023-01-12T12:06:15.463Z,101678.00
2023-01-12T12:08:42.847Z,101662.50
2023-01-12T12:11:13.524Z,101654.09
2023-01-12T12:13:56.310Z,101652.91
2023-01-12T12:16:36.570Z,101640.56
2023-01-12T12:19:07.195Z,101649.19
2023-01-12T12:21:54.235Z,101650.44
2023-01-12T12:25:09.284Z,101644.84
2023-01-12T12:28:09.461Z,101643.66
2023-01-12T12:30:48.368Z,101640.38
2023-01-12T12:33:58.155Z,101640.03
2023-01-12T12:36:39.484Z,101625.19
2023-01-12T12:39:22.048Z,101622.72
2023-01-12T12:42:24.160Z,101621.09
2023-01-12T12:45:25.557Z,101613.88
2023-01-12T12:48:06.194Z,101618.50
2023-01-12T12:50:51.470Z,101609.91
2023-01-12T12:53:35.951Z,101597.53
2023-01-12T12:56:16.400Z,101586.50
2023-01-12T12:58:48.454Z,101593.06
2023-01-12T13:01:25.397Z,101595.19
2023-01-12T13:03:58.754Z,101584.91
2023-01-12T13:06:33.936Z,101586.66
2023-01-12T13:09:25.311Z,101582.53
2023-01-12T13:11:54.296Z,101579.47
2023-01-12T13:14:28.114Z,101586.84
2023-01-12T13:17:23.831Z,101584.28
2023-01-12T13:20:24.684Z,101575.00
2023-01-12T13:22:53.267Z,101567.72
2023-01-12T13:25:20.795Z,101556.91
2023-01-12T13:28:00.966Z,101555.72
2023-01-12T13:30:28.459Z,101544.03
2023-01-12T13:33:17.190Z,101551.16
2023-01-12T13:35:45.106Z,101549.25
2023-01-12T13:38:37.452Z,101549.84
2023-01-12T13:41:50.330Z,101546.91
2023-01-12T13:44:35.191Z,101548.13
2023-01-12T13:47:10.329Z,101546.72
2023-01-12T13:49:53.176Z,101539.56
2023-01-12T13:52:36.074Z,101552.16
2023-01-12T13:55:17.688Z,101543.84
2023-01-12T13:58:20.007Z,101544.25
2023-01-12T14:00:55.480Z,101528.09
2023-01-12T14:03:53.969Z,101522.72
2023-01-12T14:06:37.978Z,101525.53
2023-01-12T14:09:20.928Z,101514.47
2023-01-12T14:12:07.805Z,101526.97
2023-01-12T14:15:14.293Z,101523.88
2023-01-12T14:17:57.963Z,101521.97
2023-01-12T14:20:28.418Z,101539.47
2023-01-12T14:23:27.996Z,101543.81
2023-01-12T14:26:10.681Z,101543.06
2023-01-12T14:28:43.364Z,101534.13
2023-01-12T14:31:19.478Z,101528.63
2023-01-12T14:33:56.464Z,101536.28
2023-01-12T14:36:50.264Z,101534.25
2023-01-12T14:39:24.017Z,101530.25
2023-01-12T14:42:12.866Z,101532.75
2023-01-12T14:45:08.403Z,101533.47
2023-01-12T14:47:36.089Z,101530.19
2023-01-12T14:50:12.600Z,101532.91
2023-01-12T14:52:45.777Z,101533.47
2023-01-12T14:55:17.668Z,101536.22
2023-01-12T14:57:54.885Z,101531.25
2023-01-12T15:00:28.047Z,101521.00
2023-01-12T15:02:57.681Z,101515.88
2023-01-12T15:05:27.553Z,101514.53
2023-01-12T15:08:22.519Z,101512.47
2023-01-12T15:11:28.473Z,101520.72
2023-01-12T15:13:58.193Z,101517.09
2023-01-12T15:16:44.417Z,101522.00
2023-01-12T15:19:30.470Z,101514.66
2023-01-12T15:22:18.054Z,101505.19
2023-01-12T15:25:04.161Z,101503.75
2023-01-12T15:27:32.108Z,101505.13
2023-01-12T15:29:59.680Z,101509.84
2023-01-12T15:32:52.120Z,101508.06
2023-01-12T15:35:23.770Z,101506.75
2023-01-12T15:37:54.479Z,101497.34
2023-01-12T15:40:22.941Z,101497.44
2023-01-12T15:42:53.044Z,101496.16
2023-01-12T15:45:34.620Z,101504.91
2023-01-12T15:48:03.070Z,101512.84
2023-01-12T15:50:31.489Z,101500.50
2023-01-12T15:53:02.098Z,101498.72
2023-01-12T15:55:36.046Z,101506.44
2023-01-12T15:58:03.628Z,101502.19
2023-01-12T16:00:31.265Z,101503.88
2023-01-12T16:02:58.660Z,101507.19
2023-01-12T16:05:29.106Z,101505.84
2023-01-12T16:07:56.522Z,101508.06
2023-01-12T16:10:24.146Z,101510.59
2023-01-12T16:12:51.584Z,101510.88
2023-01-12T16:15:25.091Z,101519.06
2023-01-12T16:17:52.574Z,101524.56
2023-01-12T16:20:20.695Z,101510.53
2023-01-12T16:22:52.178Z,101510.47
2023-01-12T16:25:20.769Z,101515.69
2023-01-12T16:27:48.226Z,101517.34
2023-01-12T16:30:15.983Z,101521.72
2023-01-12T16:32:46.475Z,101524.41
2023-01-12T16:35:15.746Z,101520.91
2023-01-12T16:37:44.632Z,101522.38
2023-01-12T16:40:12.753Z,101517.19
2023-01-12T16:42:40.237Z,101514.72
2023-01-12T16:45:08.125Z,101511.41
2023-01-12T16:47:35.668Z,101513.78
2023-01-12T16:50:03.870Z,101505.31
2023-01-12T16:52:31.271Z,101510.50
2023-01-12T16:54:58.663Z,101514.91
2023-01-12T16:57:26.177Z,101510.06
2023-01-12T16:59:53.529Z,101513.56
2023-01-12T17:02:21.513Z,101520.72
2023-01-12T17:04:52.328Z,101518.34
2023-01-12T17:07:20.393Z,101514.34
2023-01-12T17:09:48.582Z,101509.97
2023-01-12T17:12:16.710Z,101510.34
2023-01-12T17:14:44.865Z,101514.75
2023-01-12T17:17:12.961Z,101512.34
2023-01-12T17:19:43.957Z,101519.69
2023-01-12T17:22:12.391Z,101521.34
2023-01-12T17:24:41.205Z,101522.47
2023-01-12T17:27:10.179Z,101525.94
2023-01-12T17:29:37.806Z,101531.03
2023-01-12T17:32:08.016Z,101540.50
2023-01-12T17:34:39.868Z,101528.56
2023-01-12T17:37:10.255Z,101533.00
2023-01-12T17:39:39.978Z,101536.00
2023-01-12T17:42:26.002Z,101533.31
2023-01-12T17:44:53.410Z,101542.56
2023-01-12T17:47:20.976Z,101528.78
2023-01-12T17:49:48.287Z,101536.16
2023-01-12T17:52:16.051Z,101536.47
2023-01-12T17:54:43.438Z,101546.78
2023-01-12T17:57:10.869Z,101537.84
2023-01-12T17:59:38.354Z,101531.91
2023-01-12T18:02:07.136Z,101528.66
2023-01-12T18:04:34.531Z,101522.44
2023-01-12T18:07:01.931Z,101527.31
2023-01-12T18:09:29.391Z,101520.50
2023-01-12T18:11:56.932Z,101527.50
2023-01-12T18:14:25.031Z,101523.41
2023-01-12T18:16:52.516Z,101539.09
2023-01-12T18:19:19.990Z,101543.94
2023-01-12T18:21:49.835Z,101542.59
2023-01-12T18:24:17.195Z,101530.38
2023-01-12T18:26:44.669Z,101528.28
2023-01-12T18:29:12.205Z,101531.28
2023-01-12T18:31:42.426Z,101537.28
2023-01-12T18:34:10.823Z,101530.00
2023-01-12T18:36:40.246Z,101535.91
2023-01-12T18:39:11.577Z,101529.44
2023-01-12T18:42:11.209Z,101540.00
2023-01-12T18:44:39.228Z,101536.78
2023-01-12T18:47:25.332Z,101535.19
2023-01-12T18:49:57.627Z,101537.66
2023-01-12T18:52:43.744Z,101536.59
2023-01-12T18:55:11.128Z,101526.88
2023-01-12T18:57:38.512Z,101522.84
2023-01-12T19:00:17.770Z,101517.44
2023-01-12T19:02:45.486Z,101525.78
2023-01-12T19:05:14.847Z,101521.19
2023-01-12T19:08:04.643Z,101520.94
2023-01-12T19:10:33.639Z,101522.84
2023-01-12T19:13:19.514Z,101516.09
2023-01-12T19:16:05.673Z,101507.16
2023-01-12T19:18:35.404Z,101507.16
2023-01-12T19:21:27.614Z,101512.28
2023-01-12T19:24:13.627Z,101510.69
2023-01-12T19:26:59.708Z,101510.16
2023-01-12T19:29:27.080Z,101511.78
2023-01-12T19:31:54.517Z,101506.63
2023-01-12T19:34:24.746Z,101507.97
2023-01-12T19:36:52.909Z,101504.47
2023-01-12T19:39:28.670Z,101494.75
2023-01-12T19:42:14.792Z,101494.47
2023-01-12T19:44:42.160Z,101492.56
2023-01-12T19:47:09.549Z,101496.09
2023-01-12T19:49:37.023Z,101486.34
2023-01-12T19:52:04.487Z,101483.94
2023-01-12T19:54:31.994Z,101490.69
2023-01-12T19:56:59.398Z,101490.66
2023-01-12T19:59:27.615Z,101479.03
2023-01-12T20:01:55.105Z,101475.00
2023-01-12T20:04:22.576Z,101473.13
2023-01-12T20:06:53.173Z,101465.25
2023-01-12T20:09:20.675Z,101475.00
2023-01-12T20:11:54.415Z,101474.19
2023-01-12T20:14:22.166Z,101469.03
2023-01-12T20:16:49.535Z,101466.31
2023-01-12T20:19:19.416Z,101469.31
2023-01-12T20:21:47.563Z,101469.59
2023-01-12T20:24:15.577Z,101479.03
2023-01-12T20:26:43.003Z,101472.25
2023-01-12T20:29:10.433Z,101468.72
2023-01-12T20:31:37.756Z,101465.22
2023-01-12T20:34:05.198Z,101464.44
2023-01-12T20:36:33.187Z,101473.38
2023-01-12T20:39:01.360Z,101465.28
2023-01-12T20:41:30.061Z,101464.22
2023-01-12T20:43:57.785Z,101468.25
2023-01-12T20:46:26.248Z,101456.13
2023-01-12T20:48:53.744Z,101453.41
2023-01-12T20:51:21.055Z,101463.13
2023-01-12T20:53:48.429Z,101458.84
2023-01-12T20:56:15.771Z,101456.91
2023-01-12T20:58:44.910Z,101458.53
2023-01-12T21:01:15.695Z,101456.91
2023-01-12T21:03:44.941Z,101449.63
2023-01-12T21:06:18.058Z,101443.69
2023-01-12T21:08:46.942Z,101443.94
2023-01-12T21:11:16.940Z,101444.75
2023-01-12T21:13:45.346Z,101452.56
2023-01-12T21:16:16.284Z,101450.69
2023-01-12T21:18:44.847Z,101440.97
2023-01-12T21:21:12.871Z,101439.63
2023-01-12T21:23:40.333Z,101445.28
2023-01-12T21:26:08.279Z,101446.94
2023-01-12T21:28:40.302Z,101451.25
2023-01-12T21:31:08.755Z,101449.88
2023-01-12T21:33:36.302Z,101436.13
2023-01-12T21:36:04.195Z,101439.88
2023-01-12T21:38:32.385Z,101453.66
2023-01-12T21:41:04.446Z,101451.53
2023-01-12T21:43:33.417Z,101451.78
2023-01-12T21:46:09.524Z,101452.06
2023-01-12T21:48:36.941Z,101460.69
2023-01-12T21:51:06.449Z,101453.66
2023-01-12T21:53:34.035Z,101453.94
2023-01-12T21:56:04.727Z,101456.94
2023-01-12T21:58:34.700Z,101457.97
2023-01-12T22:01:11.042Z,101453.66
2023-01-12T22:03:38.941Z,101457.19
2023-01-12T22:06:12.592Z,101457.47
2023-01-12T22:08:41.221Z,101469.88
2023-01-12T22:11:14.336Z,101464.75
2023-01-12T22:13:43.528Z,101456.94
2023-01-12T22:16:13.695Z,101453.38
2023-01-12T22:18:46.279Z,101453.94
2023-01-12T22:21:13.903Z,101460.16
2023-01-12T22:23:41.300Z,101450.69
2023-01-12T22:26:11.070Z,101453.66
2023-01-12T22:28:40.804Z,101458.25
2023-01-12T22:31:14.080Z,101451.78
2023-01-12T22:33:45.383Z,101447.75
2023-01-12T22:36:13.173Z,101454.75
2023-01-12T22:38:42.087Z,101454.47
2023-01-12T22:41:12.222Z,101449.63
2023-01-12T22:43:42.921Z,101450.16
2023-01-12T22:46:24.066Z,101449.63
2023-01-12T22:48:56.648Z,101444.75
2023-01-12T22:51:26.029Z,101445.56
2023-01-12T22:53:54.332Z,101438.56
2023-01-12T22:56:22.816Z,101445.84
2023-01-12T22:58:52.420Z,101444.47
2023-01-12T23:01:21.869Z,101445.28
2023-01-12T23:03:54.348Z,101435.84
2023-01-12T23:06:23.471Z,101435.03
2023-01-12T23:08:52.060Z,101431.25
2023-01-12T23:11:22.277Z,101421.25
2023-01-12T23:13:50.738Z,101416.13
2023-01-12T23:16:19.517Z,101413.44
2023-01-12T23:18:50.018Z,101405.34
2023-01-12T23:21:21.500Z,101395.06
2023-01-12T23:23:54.566Z,101402.09
2023-01-12T23:26:28.620Z,101401.56
2023-01-12T23:29:00.312Z,101390.75
2023-01-12T23:31:30.519Z,101399.38
2023-01-12T23:33:58.165Z,101395.88
2023-01-12T23:36:28.305Z,101393.19
2023-01-12T23:38:58.501Z,101389.94
2023-01-12T23:41:28.087Z,101385.09
2023-01-12T23:43:57.877Z,101382.38
2023-01-12T23:46:26.662Z,101381.03
2023-01-12T23:48:56.130Z,101378.34
2023-01-12T23:51:25.844Z,101379.97
2023-01-12T23:53:54.483Z,101374.84
2023-01-12T23:56:23.635Z,101373.19
2023-01-12T23:58:51.023Z,101370.50
